Time;durP1;ratioP1;P1;durP2;ratioP2;P2;SDS_P1;SDS_P2;PMS_P1;PMS_P2;Temp;Humidity;BMP_temperature;BMP_pressure;BME280_temperature;BME280_humidity;BME280_pressure;Samples;Min_cycle;Max_cycle;Signal;HPM_P1;HPM_P2
2022/12/07 00:01:10;;;;;;;31.23;20.45;;;;;;;1.27;100.00;97546.69;1721071;83;20936;-77
2022/12/07 00:03:36;;;;;;;27.85;18.70;;;;;;;1.23;100.00;97543.68;1699869;84;21304;-77
2022/12/07 00:06:02;;;;;;;35.60;21.52;;;;;;;1.23;100.00;97546.87;1700417;84;21064;-80
2022/12/07 00:08:28;;;;;;;33.15;20.60;;;;;;;1.19;100.00;97542.50;1700735;84;21424;-78
2022/12/07 00:10:54;;;;;;;33.38;19.85;;;;;;;1.18;100.00;97538.20;1670016;84;20885;-77
2022/12/07 00:13:20;;;;;;;28.75;16.70;;;;;;;1.12;100.00;97540.48;1700732;84;20980;-80
2022/12/07 00:15:46;;;;;;;33.10;18.10;;;;;;;1.09;100.00;97540.41;1700792;84;21358;-80
2022/12/07 00:18:12;;;;;;;39.55;24.82;;;;;;;1.09;100.00;97536.41;1700649;84;20892;-80
2022/12/07 00:20:38;;;;;;;54.90;31.55;;;;;;;1.07;100.00;97532.34;1700620;84;20948;-80
2022/12/07 00:23:04;;;;;;;51.25;27.80;;;;;;;1.05;100.00;97534.44;1702602;83;20916;-80
2022/12/07 00:25:30;;;;;;;48.68;27.07;;;;;;;1.04;100.00;97529.63;1710477;83;20913;-80
2022/12/07 00:27:56;;;;;;;39.35;26.75;;;;;;;1.01;100.00;97536.74;1729862;83;21467;-77
2022/12/07 00:30:23;;;;;;;39.65;24.18;;;;;;;0.98;100.00;97535.88;1710321;83;20977;-77
2022/12/07 00:32:50;;;;;;;31.95;20.85;;;;;;;0.91;100.00;97541.83;1729984;83;21028;-80
2022/12/07 00:35:16;;;;;;;31.65;20.02;;;;;;;0.92;100.00;97542.13;1710185;82;20990;-77
2022/12/07 00:37:42;;;;;;;35.13;25.50;;;;;;;0.84;100.00;97533.12;1729891;83;21029;-80
2022/12/07 00:40:08;;;;;;;39.35;25.60;;;;;;;0.81;100.00;97540.25;1710297;82;21185;-80
2022/12/07 00:42:34;;;;;;;39.73;25.50;;;;;;;0.81;100.00;97536.25;1729801;83;21025;-77
2022/12/07 00:45:00;;;;;;;36.00;19.30;;;;;;;0.78;100.00;97538.86;1710335;83;20965;-77
2022/12/07 00:47:26;;;;;;;28.35;18.42;;;;;;;0.77;100.00;97535.06;1729896;83;21445;-78
2022/12/07 00:49:52;;;;;;;30.37;18.45;;;;;;;0.72;100.00;97539.77;1710269;83;20901;-77
2022/12/07 00:52:18;;;;;;;28.50;16.82;;;;;;;0.72;100.00;97532.29;1730105;83;21100;-80
2022/12/07 00:54:44;;;;;;;30.10;18.05;;;;;;;0.70;100.00;97528.52;1710426;83;20933;-80
2022/12/07 00:57:10;;;;;;;27.00;16.25;;;;;;;0.74;100.00;97535.02;1730059;83;21020;-80
2022/12/07 00:59:36;;;;;;;21.60;13.72;;;;;;;0.76;100.00;97529.44;1710165;83;21046;-81
2022/12/07 01:02:02;;;;;;;26.23;14.98;;;;;;;0.78;100.00;97529.53;1719964;83;21002;-77
2022/12/07 01:04:28;;;;;;;20.05;13.45;;;;;;;0.81;100.00;97529.59;1715359;83;21775;-77
2022/12/07 01:06:54;;;;;;;25.10;14.40;;;;;;;0.84;100.00;97527.78;1715616;83;20902;-77
2022/12/07 01:09:19;;;;;;;25.37;16.30;;;;;;;0.87;100.00;97527.87;1715567;83;20998;-80
2022/12/07 01:11:45;;;;;;;23.70;15.25;;;;;;;0.90;100.00;97522.88;1715738;83;20883;-77
2022/12/07 01:14:11;;;;;;;35.30;24.35;;;;;;;0.94;100.00;97523.21;1715382;83;21711;-79
2022/12/07 01:16:38;;;;;;;33.23;20.50;;;;;;;0.94;100.00;97517.88;1715764;83;21355;-80
2022/12/07 01:19:04;;;;;;;40.33;23.92;;;;;;;0.99;100.00;97514.01;1715436;83;21054;-80
2022/12/07 01:21:37;;;;;;;40.30;26.45;;;;;;;1.00;100.00;97515.11;1715425;83;20983;-80
2022/12/07 01:24:00;;;;;;;41.10;26.87;;;;;;;1.06;100.00;97517.38;1716952;83;21009;-81
2022/12/07 01:26:26;;;;;;;49.18;28.38;;;;;;;1.09;100.00;97509.72;1702280;84;20984;-77
2022/12/07 01:28:54;;;;;;;42.08;26.80;;;;;;;1.12;100.00;97507.94;1721657;83;21504;-80
2022/12/07 01:31:23;;;;;;;33.18;21.27;;;;;;;1.14;100.00;97502.36;1702104;84;21609;-80
2022/12/07 01:33:51;;;;;;;34.53;19.90;;;;;;;1.17;100.00;97499.22;1721555;83;21425;-77
2022/12/07 01:36:20;;;;;;;38.48;25.15;;;;;;;1.22;100.00;97498.54;1702306;84;21009;-80
2022/12/07 01:38:47;;;;;;;34.27;22.30;;;;;;;1.24;100.00;97497.25;1721658;83;21428;-77
2022/12/07 01:41:13;;;;;;;30.85;21.90;;;;;;;1.25;100.00;97502.07;1702297;84;21502;-80
2022/12/07 01:44:22;;;;;;;29.35;19.32;;;;;;;1.25;100.00;97498.88;1718801;83;20989;-78
2022/12/07 01:47:00;;;;;;;19.60;13.85;;;;;;;1.26;100.00;97498.35;1702616;84;20981;-77
2022/12/07 01:49:41;;;;;;;27.77;18.13;;;;;;;1.27;100.00;97501.30;1721660;83;21068;-77
2022/12/07 01:52:24;;;;;;;28.35;18.92;;;;;;;1.29;100.00;97495.23;1702587;84;21049;-80
2022/12/07 01:54:53;;;;;;;33.48;19.90;;;;;;;1.32;100.00;97497.43;1721731;83;21885;-80
2022/12/07 01:57:20;;;;;;;31.12;19.00;;;;;;;1.34;100.00;97492.66;1702185;84;21045;-80
2022/12/07 01:59:46;;;;;;;25.57;13.22;;;;;;;1.37;100.00;97489.55;1721743;83;21458;-77
2022/12/07 02:02:22;;;;;;;31.90;15.40;;;;;;;1.43;100.00;97489.11;1713146;83;20898;-80
2022/12/07 02:04:47;;;;;;;22.30;11.18;;;;;;;1.49;100.00;97493.53;1716056;83;20963;-80
2022/12/07 02:07:13;;;;;;;13.78;7.67;;;;;;;1.56;100.00;97493.70;1716256;83;21895;-80
2022/12/07 02:09:39;;;;;;;16.30;9.93;;;;;;;1.60;100.00;97487.34;1717506;83;20949;-80
2022/12/07 02:12:05;;;;;;;17.05;9.93;;;;;;;1.65;100.00;97487.47;1745931;82;20902;-81
2022/12/07 02:14:31;;;;;;;17.98;9.20;;;;;;;1.65;100.00;97490.14;1745709;82;20942;-80
2022/12/07 02:17:18;;;;;;;18.10;9.50;;;;;;;1.66;100.00;97491.75;1746020;82;20883;-80
2022/12/07 02:19:52;;;;;;;16.27;9.25;;;;;;;1.66;100.00;97487.22;1745590;82;21807;-77
2022/12/07 02:22:45;;;;;;;20.10;12.18;;;;;;;1.64;100.00;97481.31;1745196;82;21002;-80
2022/12/07 02:25:48;;;;;;;26.73;13.50;;;;;;;1.65;100.00;97483.45;1705210;82;21065;-77
2022/12/07 02:28:45;;;;;;;24.43;12.60;;;;;;;1.67;100.00;97491.52;1701706;83;21009;-80
2022/12/07 02:31:16;;;;;;;18.65;11.95;;;;;;;1.69;100.00;97493.95;1702342;84;21025;-77
2022/12/07 02:33:46;;;;;;;19.07;12.33;;;;;;;1.66;100.00;97487.22;1721561;83;21189;-80
2022/12/07 02:36:29;;;;;;;20.80;13.10;;;;;;;1.65;100.00;97485.60;1702106;84;21014;-80
2022/12/07 02:39:00;;;;;;;24.85;19.07;;;;;;;1.58;100.00;97484.11;1721477;83;21065;-77
2022/12/07 02:41:46;;;;;;;28.25;19.90;;;;;;;1.54;100.00;97485.11;1701836;84;21009;-80
2022/12/07 02:44:14;;;;;;;28.52;18.75;;;;;;;1.50;100.00;97485.80;1721710;83;21518;-77
2022/12/07 02:46:51;;;;;;;28.27;17.97;;;;;;;1.53;100.00;97479.45;1702596;84;21498;-77
2022/12/07 02:49:17;;;;;;;33.18;21.75;;;;;;;1.58;100.00;97478.77;1721433;83;21025;-77
2022/12/07 02:51:43;;;;;;;26.45;19.35;;;;;;;1.53;100.00;97478.64;1702300;84;21552;-77
2022/12/07 02:54:15;;;;;;;28.65;18.05;;;;;;;1.51;100.00;97472.73;1721588;83;21001;-77
2022/12/07 02:57:00;;;;;;;29.18;20.65;;;;;;;1.49;100.00;97476.98;1702119;84;21073;-80
2022/12/07 03:00:02;;;;;;;31.97;20.65;;;;;;;1.47;100.00;97482.27;1721632;83;21341;-80
2022/12/07 03:03:00;;;;;;;28.20;18.92;;;;;;;1.47;100.00;97484.42;1713164;83;21061;-78
2022/12/07 03:05:55;;;;;;;36.53;17.53;;;;;;;1.43;100.00;97477.09;1716307;83;21046;-77
2022/12/07 03:08:48;;;;;;;26.75;17.73;;;;;;;1.43;100.00;97473.91;1715749;83;21017;-80
2022/12/07 03:11:32;;;;;;;32.33;18.30;;;;;;;1.47;100.00;97475.60;1667170;85;21464;-81
2022/12/07 03:14:25;;;;;;;23.47;13.13;;;;;;;1.50;100.00;97478.60;1666779;86;21175;-77
2022/12/07 03:16:59;;;;;;;24.98;13.32;;;;;;;1.52;100.00;97470.34;1717425;82;21010;-77
2022/12/07 03:19:26;;;;;;;21.80;12.23;;;;;;;1.58;100.00;97473.42;1745558;82;21037;-80
2022/12/07 03:21:57;;;;;;;19.70;12.45;;;;;;;1.58;100.00;97471.56;1717446;83;20989;-77
2022/12/07 03:24:27;;;;;;;22.13;14.15;;;;;;;1.63;100.00;97471.69;1718982;82;21461;-77
2022/12/07 03:27:04;;;;;;;23.90;14.10;;;;;;;1.69;100.00;97469.38;1721454;83;21167;-80
2022/12/07 03:29:37;;;;;;;20.37;10.63;;;;;;;1.74;100.00;97466.55;1702205;84;21017;-77
2022/12/07 03:32:31;;;;;;;21.73;10.75;;;;;;;1.77;100.00;97468.73;1721696;83;21619;-80
2022/12/07 03:35:02;;;;;;;15.90;6.80;;;;;;;1.79;100.00;97468.77;1702646;84;20950;-77
2022/12/07 03:37:33;;;;;;;11.60;5.70;;;;;;;1.84;100.00;97467.55;1721795;83;21541;-77
2022/12/07 03:40:29;;;;;;;9.93;4.40;;;;;;;1.89;100.00;97465.52;1702090;84;21943;-80
2022/12/07 03:42:55;;;;;;;12.78;5.33;;;;;;;1.93;100.00;97463.98;1712537;83;21008;-80
2022/12/07 03:45:24;;;;;;;12.23;5.75;;;;;;;1.95;100.00;97460.53;1702438;84;20909;-78
2022/12/07 03:48:20;;;;;;;14.13;6.65;;;;;;;1.98;100.00;97457.41;1721739;83;21009;-81
2022/12/07 03:51:06;;;;;;;12.63;5.70;;;;;;;2.00;100.00;97454.49;1702298;84;20997;-80
2022/12/07 03:53:42;;;;;;;10.18;5.03;;;;;;;2.01;100.00;97452.10;1721754;83;21533;-77
2022/12/07 03:56:08;;;;;;;11.30;5.33;;;;;;;2.03;100.00;97458.82;1700847;84;20981;-77
2022/12/07 03:58:34;;;;;;;8.18;4.03;;;;;;;2.05;100.00;97463.43;1721668;83;20901;-77
2022/12/07 04:00:59;;;;;;;11.38;5.50;;;;;;;2.08;100.00;97460.80;1705340;83;20876;-77
2022/12/07 04:03:25;;;;;;;10.65;5.40;;;;;;;2.09;100.00;97456.54;1713180;83;20895;-81
2022/12/07 04:05:51;;;;;;;11.85;6.25;;;;;;;2.11;100.00;97456.30;1713224;83;21140;-77
2022/12/07 04:08:17;;;;;;;18.85;9.18;;;;;;;2.12;100.00;97455.24;1713268;83;20939;-80
2022/12/07 04:10:43;;;;;;;19.50;8.90;;;;;;;2.15;100.00;97458.80;1713175;83;21030;-81
2022/12/07 04:13:09;;;;;;;27.98;12.07;;;;;;;2.17;100.00;97458.02;1713239;83;20900;-80
2022/12/07 04:15:35;;;;;;;24.35;10.28;;;;;;;2.19;100.00;97457.25;1716781;83;20893;-77
2022/12/07 04:18:01;;;;;;;26.27;12.45;;;;;;;2.22;100.00;97456.77;1716524;83;21102;-80
2022/12/07 04:20:27;;;;;;;35.23;16.70;;;;;;;2.21;100.00;97458.62;1742782;82;20910;-77
2022/12/07 04:22:52;;;;;;;23.40;13.58;;;;;;;2.21;100.00;97450.61;1742913;82;20907;-81
2022/12/07 04:25:18;;;;;;;17.80;10.58;;;;;;;2.20;100.00;97453.52;1713567;82;20934;-77
2022/12/07 04:27:44;;;;;;;13.65;9.10;;;;;;;2.19;100.00;97454.58;1713342;83;21057;-80
2022/12/07 04:30:11;;;;;;;15.70;8.78;;;;;;;2.15;100.00;97452.11;1713365;83;21172;-77
2022/12/07 04:32:37;;;;;;;11.08;8.08;;;;;;;2.13;100.00;97449.66;1713071;83;21156;-77
2022/12/07 04:35:03;;;;;;;14.75;9.08;;;;;;;2.13;100.00;97447.51;1713271;83;21584;-80
2022/12/07 04:37:29;;;;;;;13.53;8.23;;;;;;;2.13;100.00;97447.51;1712942;83;21491;-77
2022/12/07 04:39:55;;;;;;;30.48;15.13;;;;;;;2.11;100.00;97452.28;1713837;82;22327;-80
2022/12/07 04:42:21;;;;;;;21.85;10.90;;;;;;;2.13;100.00;97446.17;1737694;82;21178;-80
2022/12/07 04:44:47;;;;;;;14.03;7.67;;;;;;;2.15;100.00;97455.59;1720210;82;20883;-81
2022/12/07 04:47:13;;;;;;;18.85;10.40;;;;;;;2.15;100.00;97455.59;1717173;82;20918;-77
2022/12/07 04:49:39;;;;;;;16.73;10.18;;;;;;;2.16;100.00;97448.38;1742866;82;20864;-77
2022/12/07 04:52:05;;;;;;;23.20;11.57;;;;;;;2.16;100.00;97449.72;1742851;82;20903;-77
2022/12/07 04:54:30;;;;;;;29.35;14.35;;;;;;;2.15;100.00;97442.23;1717507;82;22037;-78
2022/12/07 04:56:56;;;;;;;17.42;9.83;;;;;;;2.15;100.00;97452.11;1713282;83;20902;-80
2022/12/07 04:59:22;;;;;;;13.45;8.63;;;;;;;2.12;100.00;97454.72;1713134;83;20970;-77
2022/12/07 05:01:48;;;;;;;10.75;6.80;;;;;;;2.09;100.00;97458.41;1713267;83;21497;-77
2022/12/07 05:04:15;;;;;;;10.18;5.85;;;;;;;2.07;100.00;97449.82;1713117;83;20923;-81
2022/12/07 05:06:42;;;;;;;18.30;10.98;;;;;;;2.08;100.00;97452.25;1713220;83;21232;-80
2022/12/07 05:09:08;;;;;;;19.60;12.43;;;;;;;2.08;100.00;97452.25;1713047;83;21439;-77
2022/12/07 05:11:40;;;;;;;14.28;9.55;;;;;;;2.08;100.00;97451.44;1713457;83;20922;-80
2022/12/07 05:14:19;;;;;;;7.35;5.37;;;;;;;2.06;100.00;97454.88;1713209;83;21664;-80
2022/12/07 05:16:48;;;;;;;19.30;11.50;;;;;;;2.07;100.00;97453.30;1713226;83;21026;-77
2022/12/07 05:19:14;;;;;;;10.13;6.35;;;;;;;2.14;100.00;97454.50;1713233;83;21174;-81
2022/12/07 05:21:40;;;;;;;6.00;4.08;;;;;;;2.13;100.00;97444.31;1713341;83;20910;-81
2022/12/07 05:24:07;;;;;;;8.98;4.17;;;;;;;2.13;100.00;97444.31;1712986;83;20895;-81
2022/12/07 05:26:33;;;;;;;11.12;4.72;;;;;;;2.20;100.00;97453.52;1713268;83;21034;-77
2022/12/07 05:28:59;;;;;;;12.15;4.67;;;;;;;2.22;100.00;97454.09;1713199;82;21017;-80
2022/12/07 05:31:27;;;;;;;9.83;5.83;;;;;;;2.24;100.00;97452.81;1713307;83;21072;-77
2022/12/07 05:33:53;;;;;;;8.90;5.22;;;;;;;2.28;100.00;97458.48;1713095;82;21006;-80
2022/12/07 05:36:19;;;;;;;10.75;6.10;;;;;;;2.30;100.00;97456.91;1713421;83;21018;-77
2022/12/07 05:38:45;;;;;;;12.45;8.85;;;;;;;2.32;100.00;97456.16;1713112;82;20902;-80
2022/12/07 05:43:59;;;;;;;12.17;9.10;;;;;;;2.36;100.00;97461.30;1713373;82;21284;-80
2022/12/07 05:46:24;;;;;;;13.83;9.95;;;;;;;2.38;100.00;97457.84;1713239;83;21647;-77
2022/12/07 05:48:50;;;;;;;11.45;7.87;;;;;;;2.38;100.00;97457.84;1713290;82;20969;-80
2022/12/07 05:51:16;;;;;;;9.75;6.55;;;;;;;2.38;100.00;97458.66;1713325;83;20942;-78
2022/12/07 05:53:42;;;;;;;11.05;7.90;;;;;;;2.41;100.00;97456.86;1725841;82;20911;-81
2022/12/07 05:56:08;;;;;;;12.10;6.03;;;;;;;2.40;100.00;97457.92;1723690;82;21278;-81
2022/12/07 06:01:18;;;;;;;16.62;8.60;;;;;;;2.38;100.00;97456.52;1724437;82;21018;-77
2022/12/07 06:03:45;;;;;;;13.35;7.25;;;;;;;2.36;100.00;97459.96;1735138;82;20966;-80
2022/12/07 06:06:11;;;;;;;12.35;6.78;;;;;;;2.35;100.00;97459.68;1737808;82;21026;-79
2022/12/07 06:08:37;;;;;;;15.53;8.08;;;;;;;2.35;100.00;97462.35;1739692;82;21820;-80
2022/12/07 06:13:47;;;;;;;12.70;7.70;;;;;;;2.34;100.00;97456.20;1710218;82;21032;-80
2022/12/07 06:16:13;;;;;;;19.50;12.28;;;;;;;2.36;100.00;97465.31;1718719;82;20877;-77
2022/12/07 06:18:39;;;;;;;17.30;12.55;;;;;;;2.36;100.00;97465.31;1713626;83;20874;-77
2022/12/07 06:21:05;;;;;;;17.07;11.18;;;;;;;2.36;100.00;97463.45;1743019;82;21207;-77
2022/12/07 06:23:31;;;;;;;19.90;12.00;;;;;;;2.36;100.00;97463.45;1707790;83;21065;-80
2022/12/07 06:25:56;;;;;;;15.40;10.90;;;;;;;2.37;100.00;97468.27;1716276;83;20962;-80
2022/12/07 06:28:22;;;;;;;23.20;11.57;;;;;;;2.39;100.00;97468.83;1712229;83;21490;-77
2022/12/07 06:31:00;;;;;;;26.97;14.40;;;;;;;2.36;100.00;97467.98;1701872;83;20913;-80
2022/12/07 06:33:26;;;;;;;15.53;9.48;;;;;;;2.36;100.00;97467.98;1693756;83;21801;-80
2022/12/07 06:35:52;;;;;;;16.97;9.75;;;;;;;2.36;100.00;97469.32;1686941;84;21057;-77
2022/12/07 06:38:18;;;;;;;24.92;11.50;;;;;;;2.35;100.00;97465.84;1686977;85;21027;-77
2022/12/07 06:40:43;;;;;;;27.30;12.50;;;;;;;2.38;100.00;97476.57;1713782;82;20887;-77
2022/12/07 06:43:10;;;;;;;33.42;13.43;;;;;;;2.37;100.00;97476.28;1712115;82;21411;-81
2022/12/07 06:45:35;;;;;;;46.73;16.02;;;;;;;2.38;100.00;97478.72;1722115;82;21138;-77
2022/12/07 06:48:01;;;;;;;44.73;16.90;;;;;;;2.37;100.00;97477.09;1723433;81;21652;-77
2022/12/07 06:50:28;;;;;;;42.80;16.90;;;;;;;2.39;100.00;97479.00;1715865;81;20911;-80
2022/12/07 06:52:54;;;;;;;52.65;29.82;;;;;;;2.41;100.00;97481.45;1717992;82;21026;-77
2022/12/07 06:55:19;;;;;;;49.65;26.05;;;;;;;2.42;100.00;97478.53;1712439;83;20956;-77
2022/12/07 06:57:45;;;;;;;43.38;21.37;;;;;;;2.44;100.00;97488.46;1681982;85;21270;-77
2022/12/07 07:00:13;;;;;;;50.90;19.87;;;;;;;2.46;100.00;97489.55;1688492;82;21638;-77
2022/12/07 07:02:39;;;;;;;69.62;24.98;;;;;;;2.46;100.00;97489.55;1702491;82;21143;-77
2022/12/07 07:05:05;;;;;;;48.40;21.57;;;;;;;2.45;100.00;97494.09;1709640;82;20956;-77
2022/12/07 07:07:31;;;;;;;18.62;10.30;;;;;;;2.45;100.00;97487.94;1718832;82;21024;-77
2022/12/07 07:09:57;;;;;;;20.05;12.13;;;;;;;2.46;100.00;97494.37;1737697;82;21830;-80
2022/12/07 07:12:23;;;;;;;87.92;38.73;;;;;;;2.47;100.00;97494.66;1704676;83;20968;-79
2022/12/07 07:14:49;;;;;;;122.33;53.80;;;;;;;2.43;100.00;97486.84;1689636;83;20929;-80
2022/12/07 07:17:15;;;;;;;98.62;43.85;;;;;;;2.47;100.00;97506.69;1702662;82;20925;-77
2022/12/07 07:19:41;;;;;;;98.17;40.95;;;;;;;2.48;100.00;97499.51;1692244;83;21548;-77
2022/12/07 07:22:06;;;;;;;79.20;33.95;;;;;;;2.49;100.00;97503.80;1719633;82;22596;-77
2022/12/07 07:24:32;;;;;;;56.30;22.60;;;;;;;2.48;100.00;97502.18;1727925;81;21577;-77
2022/12/07 07:26:58;;;;;;;53.48;20.80;;;;;;;2.48;100.00;97496.83;1724053;82;20945;-76
2022/12/07 07:29:24;;;;;;;46.53;19.92;;;;;;;2.49;100.00;97495.78;1697927;82;21456;-80
2022/12/07 07:31:50;;;;;;;41.65;15.30;;;;;;;2.50;100.00;97499.55;1695948;82;20988;-77
2022/12/07 07:34:16;;;;;;;36.88;14.95;;;;;;;2.51;100.00;97493.14;1697381;83;22353;-77
2022/12/07 07:36:42;;;;;;;28.00;13.25;;;;;;;2.54;100.00;97493.98;1706604;82;20945;-81
2022/12/07 07:39:10;;;;;;;22.22;10.55;;;;;;;2.54;100.00;97493.98;1709468;82;21075;-80
2022/12/07 07:41:35;;;;;;;21.02;9.78;;;;;;;2.55;100.00;97496.13;1711179;82;21344;-81
2022/12/07 07:44:01;;;;;;;16.97;8.25;;;;;;;2.52;100.00;97496.62;1718407;82;20880;-80
2022/12/07 07:46:27;;;;;;;20.43;8.75;;;;;;;2.52;100.00;97498.77;1711888;83;21511;-80
2022/12/07 07:48:53;;;;;;;26.48;12.23;;;;;;;2.50;100.00;97500.87;1694608;82;20917;-80
2022/12/07 07:51:19;;;;;;;13.40;7.10;;;;;;;2.50;100.00;97500.87;1701484;83;21031;-77
2022/12/07 07:53:46;;;;;;;17.98;8.70;;;;;;;2.50;100.00;97502.22;1716388;80;21516;-77
2022/12/07 07:56:11;;;;;;;35.00;17.77;;;;;;;2.48;100.00;97500.31;1718814;80;21097;-80
2022/12/07 07:58:39;;;;;;;41.60;23.75;;;;;;;2.46;100.00;97502.39;1723807;82;21179;-80
2022/12/07 08:01:06;;;;;;;31.42;17.82;;;;;;;2.46;100.00;97502.39;1721855;80;21461;-77
2022/12/07 08:03:32;;;;;;;21.55;12.33;;;;;;;2.51;100.00;97503.84;1727342;80;21113;-80
2022/12/07 08:05:58;;;;;;;19.75;10.90;;;;;;;2.50;100.00;97514.25;1737857;80;20895;-77
2022/12/07 08:08:24;;;;;;;12.15;7.00;;;;;;;2.49;100.00;97513.97;1716830;83;21072;-80
2022/12/07 08:10:50;;;;;;;20.95;8.23;;;;;;;2.47;100.00;97518.72;1703817;82;21076;-80
2022/12/07 08:13:16;;;;;;;24.72;8.90;;;;;;;2.46;100.00;97522.45;1711015;82;21517;-77
2022/12/07 08:15:45;;;;;;;25.55;11.45;;;;;;;2.48;100.00;97524.39;1724580;82;21344;-80
2022/12/07 08:18:11;;;;;;;14.98;7.78;;;;;;;2.43;100.00;97524.28;1727270;80;20995;-80
2022/12/07 08:20:37;;;;;;;14.83;6.90;;;;;;;2.44;100.00;97525.09;1711096;82;21544;-80
2022/12/07 08:23:03;;;;;;;7.50;4.15;;;;;;;2.43;100.00;97526.14;1717591;82;21103;-77
2022/12/07 08:25:29;;;;;;;18.75;7.33;;;;;;;2.46;100.00;97525.66;1705800;82;21045;-77
2022/12/07 08:27:55;;;;;;;17.25;6.78;;;;;;;2.43;100.00;97526.95;1708478;82;20892;-77
2022/12/07 08:30:21;;;;;;;10.53;5.50;;;;;;;2.40;100.00;97536.80;1723936;80;20932;-80
2022/12/07 08:32:47;;;;;;;38.28;15.68;;;;;;;2.39;100.00;97536.49;1708590;82;21000;-80
2022/12/07 08:35:14;;;;;;;28.55;14.40;;;;;;;2.35;100.00;97536.70;1699178;82;21124;-77
2022/12/07 08:37:40;;;;;;;27.50;16.57;;;;;;;2.34;100.00;97538.28;1713466;82;21588;-80
2022/12/07 08:40:07;;;;;;;19.27;10.78;;;;;;;2.33;100.00;97544.16;1701799;83;21005;-80
2022/12/07 08:42:44;;;;;;;17.50;8.35;;;;;;;2.36;100.00;97543.66;1722982;81;21038;-81
2022/12/07 08:45:01;;;;;;;12.75;7.53;;;;;;;2.40;100.00;97547.50;1717873;81;21312;-77
2022/12/07 08:47:27;;;;;;;15.38;9.53;;;;;;;2.39;100.00;97547.19;1701204;82;21299;-77
2022/12/07 08:49:53;;;;;;;11.40;7.40;;;;;;;2.37;100.00;97548.48;1703565;82;22117;-80
2022/12/07 08:52:19;;;;;;;12.37;8.18;;;;;;;2.41;100.00;97554.47;1721837;82;20869;-77
2022/12/07 08:54:44;;;;;;;13.35;7.87;;;;;;;2.45;100.00;97556.94;1718033;82;21580;-77
2022/12/07 08:57:10;;;;;;;14.85;4.83;;;;;;;2.47;100.00;97552.16;1703006;82;20988;-77
2022/12/07 08:59:37;;;;;;;7.87;4.67;;;;;;;2.46;100.00;97547.86;1696669;83;21142;-77
2022/12/07 09:02:04;;;;;;;8.70;5.17;;;;;;;2.49;100.00;97553.28;1699328;82;21096;-80
2022/12/07 09:04:30;;;;;;;7.12;4.47;;;;;;;2.52;100.00;97550.93;1714087;82;21125;-81
2022/12/07 09:06:56;;;;;;;11.30;6.22;;;;;;;2.55;100.00;97553.64;1712511;82;21010;-77
2022/12/07 09:09:22;;;;;;;10.13;7.10;;;;;;;2.58;100.00;97551.84;1703570;82;20949;-80
2022/12/07 09:11:47;;;;;;;11.00;6.33;;;;;;;2.60;100.00;97554.27;1690680;83;21131;-80
2022/12/07 09:14:13;;;;;;;7.65;4.92;;;;;;;2.64;100.00;97545.52;1727555;80;20900;-77
2022/12/07 09:16:39;;;;;;;14.78;5.80;;;;;;;2.64;100.00;97545.52;1705465;82;20917;-80
2022/12/07 09:19:07;;;;;;;13.45;5.58;;;;;;;2.68;100.00;97551.21;1696911;83;21040;-80
2022/12/07 09:21:33;;;;;;;8.30;4.70;;;;;;;2.70;100.00;97545.89;1708023;82;21529;-80
2022/12/07 09:23:59;;;;;;;15.83;9.45;;;;;;;2.76;100.00;97544.13;1700982;82;21179;-81
2022/12/07 09:26:25;;;;;;;16.82;7.92;;;;;;;2.78;100.00;97538.81;1706754;82;20976;-80
2022/12/07 09:28:51;;;;;;;16.32;8.10;;;;;;;2.83;100.00;97539.45;1720618;82;21471;-77
2022/12/07 09:31:17;;;;;;;10.90;7.62;;;;;;;2.88;100.00;97540.85;1720932;80;20845;-77
2022/12/07 09:33:44;;;;;;;13.93;7.42;;;;;;;2.91;100.00;97543.59;1724384;81;20895;-80
2022/12/07 09:36:10;;;;;;;18.25;7.47;;;;;;;2.91;100.00;97536.91;1732886;80;21178;-80
2022/12/07 09:38:35;;;;;;;11.45;7.33;;;;;;;2.86;100.00;97535.47;1723290;81;20934;-80
2022/12/07 09:41:07;;;;;;;22.85;10.43;;;;;;;2.79;100.00;97535.08;1737153;80;21014;-81
2022/12/07 09:43:35;;;;;;;19.35;12.33;;;;;;;2.77;100.00;97533.71;1719836;81;21018;-77
2022/12/07 09:46:01;;;;;;;27.98;15.43;;;;;;;2.76;100.00;97532.09;1726001;80;21470;-77
2022/12/07 09:48:38;;;;;;;21.30;12.18;;;;;;;2.78;100.00;97529.45;1730579;80;21152;-80
2022/12/07 09:51:18;;;;;;;16.37;9.90;;;;;;;2.73;100.00;97528.02;1711253;83;21131;-80
2022/12/07 09:53:44;;;;;;;15.58;10.18;;;;;;;2.75;100.00;97527.27;1709598;83;20992;-80
2022/12/07 09:56:13;;;;;;;47.10;19.98;;;;;;;2.75;100.00;97527.80;1700186;83;20917;-81
2022/12/07 09:58:39;;;;;;;24.87;12.13;;;;;;;2.74;100.00;97526.98;1717983;81;21039;-81
2022/12/07 10:01:18;;;;;;;46.33;18.90;;;;;;;2.76;100.00;97526.22;1720085;81;21168;-81
2022/12/07 10:03:51;;;;;;;43.17;18.92;;;;;;;2.78;100.00;97521.42;1747309;81;21126;-80
2022/12/07 10:06:16;;;;;;;45.28;23.80;;;;;;;2.88;100.00;97519.97;1710690;81;21023;-77
2022/12/07 10:08:43;;;;;;;46.88;20.95;;;;;;;2.97;100.00;97514.50;1722512;81;20928;-77
2022/12/07 10:11:10;;;;;;;70.97;29.23;;;;;;;3.03;100.00;97515.69;1713621;82;21021;-80
2022/12/07 10:13:42;;;;;;;71.00;30.88;;;;;;;3.10;100.00;97508.30;1717437;82;21127;-77
2022/12/07 10:16:37;;;;;;;65.75;30.50;;;;;;;3.11;100.00;97495.73;1713718;82;21014;-80
2022/12/07 10:19:33;;;;;;;49.70;23.12;;;;;;;3.18;100.00;97508.95;1720148;82;21030;-80
2022/12/07 10:22:02;;;;;;;29.77;16.57;;;;;;;3.21;100.00;97495.88;1712780;82;21068;-77
2022/12/07 10:24:28;;;;;;;17.32;8.93;;;;;;;3.23;100.00;97496.44;1704564;83;21597;-80
2022/12/07 10:26:54;;;;;;;21.12;11.90;;;;;;;3.32;100.00;97490.14;1699932;82;21156;-80
2022/12/07 10:29:33;;;;;;;16.67;11.00;;;;;;;3.42;100.00;97492.98;1705016;82;20966;-80
2022/12/07 10:32:04;;;;;;;14.70;8.63;;;;;;;3.49;100.00;97488.77;1706940;82;21000;-81
2022/12/07 10:34:33;;;;;;;16.07;8.08;;;;;;;3.60;100.00;97494.04;1704493;83;21054;-80
2022/12/07 10:37:18;;;;;;;12.43;7.90;;;;;;;3.64;100.00;97490.32;1704546;82;21044;-77
2022/12/07 10:39:56;;;;;;;14.83;10.20;;;;;;;3.69;100.00;97487.72;1732829;80;21102;-77
2022/12/07 10:42:28;;;;;;;11.68;6.90;;;;;;;3.67;100.00;97491.99;1738649;80;21019;-77
2022/12/07 10:45:15;;;;;;;11.28;5.53;;;;;;;3.70;100.00;97489.87;1723678;80;21023;-77
2022/12/07 10:48:01;;;;;;;10.35;6.50;;;;;;;3.68;100.00;97485.58;1701243;83;21030;-80
2022/12/07 10:51:02;;;;;;;12.05;5.95;;;;;;;3.73;100.00;97479.45;1707860;82;20980;-80
2022/12/07 10:53:56;;;;;;;13.50;7.22;;;;;;;3.73;100.00;97485.34;1710783;82;21326;-77
2022/12/07 10:56:45;;;;;;;20.65;9.23;;;;;;;3.69;100.00;97477.00;1695463;83;21091;-81
2022/12/07 10:59:29;;;;;;;13.43;6.35;;;;;;;3.71;100.00;97478.90;1668577;83;21090;-78
2022/12/07 11:02:34;;;;;;;9.55;5.80;;;;;;;3.61;100.00;97472.08;1733997;80;21037;-77
2022/12/07 11:05:24;;;;;;;15.53;8.63;;;;;;;3.54;100.00;97467.42;1687703;83;21103;-81
2022/12/07 11:08:15;;;;;;;20.05;12.10;;;;;;;3.48;100.00;97459.02;1704995;82;21063;-80
2022/12/07 11:10:50;;;;;;;11.25;6.75;;;;;;;3.32;100.00;97468.71;1741517;80;21068;-81
2022/12/07 11:13:42;;;;;;;23.85;14.93;;;;;;;3.26;100.00;97456.33;1727451;80;21053;-77
2022/12/07 11:16:34;;;;;;;25.17;15.18;;;;;;;3.27;100.00;97456.61;1719649;80;21473;-77
2022/12/07 11:19:36;;;;;;;24.65;13.83;;;;;;;3.25;100.00;97461.41;1730391;80;21116;-80
2022/12/07 11:22:22;;;;;;;12.58;7.67;;;;;;;3.25;100.00;97461.41;1734305;80;21892;-81
2022/12/07 11:25:22;;;;;;;15.28;9.78;;;;;;;3.31;100.00;97469.77;1718976;82;21068;-77
2022/12/07 11:28:21;;;;;;;10.58;7.33;;;;;;;3.36;100.00;97466.65;1700299;82;21056;-77
2022/12/07 11:30:50;;;;;;;;;;;;;;;3.38;100.00;97468.55;1724759;82;21053;-80
2022/12/07 11:33:30;;;;;;;14.85;9.10;;;;;;;3.31;100.00;97470.58;1707371;82;20142;-77
2022/12/07 11:36:34;;;;;;;23.55;11.65;;;;;;;3.29;100.00;97464.67;1692281;82;21046;-77
2022/12/07 11:39:11;;;;;;;32.30;20.23;;;;;;;3.30;100.00;97464.95;1700701;82;20989;-80
2022/12/07 11:41:38;;;;;;;21.65;15.15;;;;;;;3.29;100.00;97469.22;1713758;82;21045;-77
2022/12/07 11:44:33;;;;;;;19.15;10.95;;;;;;;3.27;100.00;97470.81;1694200;82;21032;-80
2022/12/07 11:47:37;;;;;;;24.87;14.47;;;;;;;3.28;100.00;97469.75;1700386;82;21473;-81